sensor_id;sensor_type;location;lat;lon;timestamp;temperature;humidity
36548;DHT22;22551;52.206;4.856;2023-12-20T00:00:22;6.60;99.90
36548;DHT22;22551;52.206;4.856;2023-12-20T00:05:24;6.50;99.90
36548;DHT22;22551;52.206;4.856;2023-12-20T00:10:27;6.50;99.90
36548;DHT22;22551;52.206;4.856;2023-12-20T00:15:29;6.50;99.90
36548;DHT22;22551;52.206;4.856;2023-12-20T00:20:32;6.50;99.90
36548;DHT22;22551;52.206;4.856;2023-12-20T00:25:35;6.50;99.90
36548;DHT22;22551;52.206;4.856;2023-12-20T00:30:37;6.40;99.90
36548;DHT22;22551;52.206;4.856;2023-12-20T00:35:39;6.50;99.90
36548;DHT22;22551;52.206;4.856;2023-12-20T00:40:43;6.50;99.90
36548;DHT22;22551;52.206;4.856;2023-12-20T00:45:45;6.60;99.90
36548;DHT22;22551;52.206;4.856;2023-12-20T00:50:47;6.60;99.90
36548;DHT22;22551;52.206;4.856;2023-12-20T00:55:51;6.60;99.90
36548;DHT22;22551;52.206;4.856;2023-12-20T01:00:53;6.60;99.90
36548;DHT22;22551;52.206;4.856;2023-12-20T01:05:55;6.60;99.90
36548;DHT22;22551;52.206;4.856;2023-12-20T01:10:58;6.60;99.90
36548;DHT22;22551;52.206;4.856;2023-12-20T01:16:01;6.60;99.90
36548;DHT22;22551;52.206;4.856;2023-12-20T01:21:03;6.60;99.90
36548;DHT22;22551;52.206;4.856;2023-12-20T01:26:07;6.60;99.90
36548;DHT22;22551;52.206;4.856;2023-12-20T01:31:09;6.70;99.90
36548;DHT22;22551;52.206;4.856;2023-12-20T01:36:11;6.70;99.90
36548;DHT22;22551;52.206;4.856;2023-12-20T01:41:15;6.70;99.90
36548;DHT22;22551;52.206;4.856;2023-12-20T01:46:17;6.90;99.90
36548;DHT22;22551;52.206;4.856;2023-12-20T01:51:21;6.80;99.90
36548;DHT22;22551;52.206;4.856;2023-12-20T01:56:25;6.90;99.90
36548;DHT22;22551;52.206;4.856;2023-12-20T02:01:28;6.90;99.90
36548;DHT22;22551;52.206;4.856;2023-12-20T02:06:30;7.00;99.90
36548;DHT22;22551;52.206;4.856;2023-12-20T02:11:34;7.00;99.90
36548;DHT22;22551;52.206;4.856;2023-12-20T02:16:37;7.10;99.90
36548;DHT22;22551;52.206;4.856;2023-12-20T02:21:41;7.00;99.90
36548;DHT22;22551;52.206;4.856;2023-12-20T02:26:43;6.90;99.90
36548;DHT22;22551;52.206;4.856;2023-12-20T02:31:45;7.00;99.90
36548;DHT22;22551;52.206;4.856;2023-12-20T02:36:49;7.10;99.90
36548;DHT22;22551;52.206;4.856;2023-12-20T02:41:51;7.10;99.90
36548;DHT22;22551;52.206;4.856;2023-12-20T02:46:53;7.10;99.90
36548;DHT22;22551;52.206;4.856;2023-12-20T02:51:57;7.20;99.90
36548;DHT22;22551;52.206;4.856;2023-12-20T02:56:59;7.20;99.90
36548;DHT22;22551;52.206;4.856;2023-12-20T03:02:01;7.10;99.90
36548;DHT22;22551;52.206;4.856;2023-12-20T03:07:04;7.20;99.90
36548;DHT22;22551;52.206;4.856;2023-12-20T03:12:07;7.20;99.90
36548;DHT22;22551;52.206;4.856;2023-12-20T03:17:09;7.20;99.90
36548;DHT22;22551;52.206;4.856;2023-12-20T03:22:12;7.30;99.90
36548;DHT22;22551;52.206;4.856;2023-12-20T03:27:14;7.30;99.90
36548;DHT22;22551;52.206;4.856;2023-12-20T03:32:16;7.20;99.90
36548;DHT22;22551;52.206;4.856;2023-12-20T03:37:21;7.10;99.90
36548;DHT22;22551;52.206;4.856;2023-12-20T03:42:23;7.10;99.90
36548;DHT22;22551;52.206;4.856;2023-12-20T03:47:25;7.10;99.90
36548;DHT22;22551;52.206;4.856;2023-12-20T03:52:28;7.10;99.90
36548;DHT22;22551;52.206;4.856;2023-12-20T03:57:30;7.20;99.90
36548;DHT22;22551;52.206;4.856;2023-12-20T04:02:32;7.30;99.90
36548;DHT22;22551;52.206;4.856;2023-12-20T04:07:36;7.30;99.90
36548;DHT22;22551;52.206;4.856;2023-12-20T04:12:39;7.30;99.90
36548;DHT22;22551;52.206;4.856;2023-12-20T04:17:41;7.30;99.90
36548;DHT22;22551;52.206;4.856;2023-12-20T04:22:44;7.20;99.90
36548;DHT22;22551;52.206;4.856;2023-12-20T04:27:46;7.10;99.90
36548;DHT22;22551;52.206;4.856;2023-12-20T04:32:48;7.00;99.90
36548;DHT22;22551;52.206;4.856;2023-12-20T04:37:52;7.00;99.90
36548;DHT22;22551;52.206;4.856;2023-12-20T04:42:54;7.00;99.90
36548;DHT22;22551;52.206;4.856;2023-12-20T04:47:56;7.10;99.90
36548;DHT22;22551;52.206;4.856;2023-12-20T04:53:00;7.10;99.90
36548;DHT22;22551;52.206;4.856;2023-12-20T04:58:02;7.10;99.90
36548;DHT22;22551;52.206;4.856;2023-12-20T05:03:04;7.20;99.90
36548;DHT22;22551;52.206;4.856;2023-12-20T05:08:08;7.20;99.90
36548;DHT22;22551;52.206;4.856;2023-12-20T05:13:10;7.20;99.90
36548;DHT22;22551;52.206;4.856;2023-12-20T05:18:12;7.30;99.90
36548;DHT22;22551;52.206;4.856;2023-12-20T05:23:16;7.30;99.90
36548;DHT22;22551;52.206;4.856;2023-12-20T05:28:18;7.40;99.90
36548;DHT22;22551;52.206;4.856;2023-12-20T05:33:20;7.40;99.90
36548;DHT22;22551;52.206;4.856;2023-12-20T05:38:23;7.40;99.90
36548;DHT22;22551;52.206;4.856;2023-12-20T05:43:26;7.40;99.90
36548;DHT22;22551;52.206;4.856;2023-12-20T05:48:28;7.50;99.90
36548;DHT22;22551;52.206;4.856;2023-12-20T05:53:31;7.50;99.90
36548;DHT22;22551;52.206;4.856;2023-12-20T05:58:33;7.50;99.90
36548;DHT22;22551;52.206;4.856;2023-12-20T06:03:35;7.60;99.90
36548;DHT22;22551;52.206;4.856;2023-12-20T06:08:39;7.60;99.90
36548;DHT22;22551;52.206;4.856;2023-12-20T06:13:41;7.70;99.90
36548;DHT22;22551;52.206;4.856;2023-12-20T06:18:43;7.70;99.90
36548;DHT22;22551;52.206;4.856;2023-12-20T06:23:46;7.60;99.90
36548;DHT22;22551;52.206;4.856;2023-12-20T06:28:49;7.70;99.90
36548;DHT22;22551;52.206;4.856;2023-12-20T06:33:51;7.80;99.90
36548;DHT22;22551;52.206;4.856;2023-12-20T06:38:59;7.80;99.90
36548;DHT22;22551;52.206;4.856;2023-12-20T06:44:01;7.80;99.90
36548;DHT22;22551;52.206;4.856;2023-12-20T06:49:03;7.80;99.90
36548;DHT22;22551;52.206;4.856;2023-12-20T06:54:07;7.70;99.90
36548;DHT22;22551;52.206;4.856;2023-12-20T06:59:09;7.70;99.90
36548;DHT22;22551;52.206;4.856;2023-12-20T07:04:11;7.70;99.90
36548;DHT22;22551;52.206;4.856;2023-12-20T07:09:14;7.70;99.90
36548;DHT22;22551;52.206;4.856;2023-12-20T07:14:16;7.60;99.90
36548;DHT22;22551;52.206;4.856;2023-12-20T07:19:19;7.60;99.90
36548;DHT22;22551;52.206;4.856;2023-12-20T07:24:22;7.60;99.90
36548;DHT22;22551;52.206;4.856;2023-12-20T07:29:24;7.50;99.90
36548;DHT22;22551;52.206;4.856;2023-12-20T07:34:26;7.50;99.90
36548;DHT22;22551;52.206;4.856;2023-12-20T07:39:30;7.50;99.90
36548;DHT22;22551;52.206;4.856;2023-12-20T07:44:32;7.70;99.90
36548;DHT22;22551;52.206;4.856;2023-12-20T07:49:34;7.70;99.90
36548;DHT22;22551;52.206;4.856;2023-12-20T07:54:38;7.70;99.90
36548;DHT22;22551;52.206;4.856;2023-12-20T07:59:41;7.70;99.90
36548;DHT22;22551;52.206;4.856;2023-12-20T08:04:44;7.80;99.90
36548;DHT22;22551;52.206;4.856;2023-12-20T08:09:48;7.80;99.90
36548;DHT22;22551;52.206;4.856;2023-12-20T08:14:50;7.80;99.90
36548;DHT22;22551;52.206;4.856;2023-12-20T08:19:52;7.90;99.90
36548;DHT22;22551;52.206;4.856;2023-12-20T08:24:55;8.00;99.90
36548;DHT22;22551;52.206;4.856;2023-12-20T08:29:58;8.00;99.90
36548;DHT22;22551;52.206;4.856;2023-12-20T08:35:00;8.00;99.90
36548;DHT22;22551;52.206;4.856;2023-12-20T08:40:04;8.10;99.90
36548;DHT22;22551;52.206;4.856;2023-12-20T08:45:07;8.10;99.90
36548;DHT22;22551;52.206;4.856;2023-12-20T08:50:10;8.20;99.90
36548;DHT22;22551;52.206;4.856;2023-12-20T08:55:14;8.20;99.90
36548;DHT22;22551;52.206;4.856;2023-12-20T09:00:19;8.20;99.90
36548;DHT22;22551;52.206;4.856;2023-12-20T09:05:24;8.30;99.90
36548;DHT22;22551;52.206;4.856;2023-12-20T09:10:28;8.30;99.90
36548;DHT22;22551;52.206;4.856;2023-12-20T09:15:30;8.40;99.90
36548;DHT22;22551;52.206;4.856;2023-12-20T09:20:34;8.40;99.90
36548;DHT22;22551;52.206;4.856;2023-12-20T09:25:38;8.50;99.90
36548;DHT22;22551;52.206;4.856;2023-12-20T09:30:40;8.50;99.90
36548;DHT22;22551;52.206;4.856;2023-12-20T09:35:42;8.50;99.90
36548;DHT22;22551;52.206;4.856;2023-12-20T09:40:46;8.60;99.90
36548;DHT22;22551;52.206;4.856;2023-12-20T09:45:48;8.50;99.90
36548;DHT22;22551;52.206;4.856;2023-12-20T09:50:54;8.60;99.90
36548;DHT22;22551;52.206;4.856;2023-12-20T09:55:59;8.70;99.90
36548;DHT22;22551;52.206;4.856;2023-12-20T10:01:01;8.70;99.90
36548;DHT22;22551;52.206;4.856;2023-12-20T10:06:04;8.70;99.90
36548;DHT22;22551;52.206;4.856;2023-12-20T10:11:08;8.80;99.90
36548;DHT22;22551;52.206;4.856;2023-12-20T10:16:10;8.80;99.90
36548;DHT22;22551;52.206;4.856;2023-12-20T10:21:12;8.80;99.90
36548;DHT22;22551;52.206;4.856;2023-12-20T10:26:21;8.80;99.90
36548;DHT22;22551;52.206;4.856;2023-12-20T10:31:27;8.80;99.90
36548;DHT22;22551;52.206;4.856;2023-12-20T10:36:31;8.80;99.90
36548;DHT22;22551;52.206;4.856;2023-12-20T10:41:36;8.80;99.90
36548;DHT22;22551;52.206;4.856;2023-12-20T10:46:42;8.90;99.90
36548;DHT22;22551;52.206;4.856;2023-12-20T10:51:50;9.00;99.90
36548;DHT22;22551;52.206;4.856;2023-12-20T10:56:57;9.10;99.90
36548;DHT22;22551;52.206;4.856;2023-12-20T11:02:00;9.20;99.90
36548;DHT22;22551;52.206;4.856;2023-12-20T11:07:13;9.30;99.90
36548;DHT22;22551;52.206;4.856;2023-12-20T11:12:25;9.40;99.90
36548;DHT22;22551;52.206;4.856;2023-12-20T11:17:32;9.40;99.90
36548;DHT22;22551;52.206;4.856;2023-12-20T11:22:34;9.40;99.90
36548;DHT22;22551;52.206;4.856;2023-12-20T11:27:41;9.50;99.90
36548;DHT22;22551;52.206;4.856;2023-12-20T11:32:46;9.40;99.90
36548;DHT22;22551;52.206;4.856;2023-12-20T11:37:48;9.40;99.90
36548;DHT22;22551;52.206;4.856;2023-12-20T11:42:51;9.50;99.90
36548;DHT22;22551;52.206;4.856;2023-12-20T11:47:55;9.50;99.90
36548;DHT22;22551;52.206;4.856;2023-12-20T11:52:58;9.50;99.90
36548;DHT22;22551;52.206;4.856;2023-12-20T11:58:01;9.50;99.90
36548;DHT22;22551;52.206;4.856;2023-12-20T12:03:04;9.50;99.90
36548;DHT22;22551;52.206;4.856;2023-12-20T12:08:06;9.50;99.90
36548;DHT22;22551;52.206;4.856;2023-12-20T12:13:10;9.40;99.90
36548;DHT22;22551;52.206;4.856;2023-12-20T12:18:15;9.40;99.90
36548;DHT22;22551;52.206;4.856;2023-12-20T12:23:23;9.40;99.90
36548;DHT22;22551;52.206;4.856;2023-12-20T12:28:27;9.50;99.90
36548;DHT22;22551;52.206;4.856;2023-12-20T12:33:29;9.40;99.90
36548;DHT22;22551;52.206;4.856;2023-12-20T12:38:32;9.40;99.90
36548;DHT22;22551;52.206;4.856;2023-12-20T12:43:36;9.30;99.90
36548;DHT22;22551;52.206;4.856;2023-12-20T12:48:38;9.30;99.90
36548;DHT22;22551;52.206;4.856;2023-12-20T12:53:40;9.30;99.90
36548;DHT22;22551;52.206;4.856;2023-12-20T12:58:44;9.30;99.90
36548;DHT22;22551;52.206;4.856;2023-12-20T13:03:46;9.30;99.90
36548;DHT22;22551;52.206;4.856;2023-12-20T13:08:49;9.30;99.90
36548;DHT22;22551;52.206;4.856;2023-12-20T13:13:52;9.30;99.90
36548;DHT22;22551;52.206;4.856;2023-12-20T13:18:54;9.40;99.90
36548;DHT22;22551;52.206;4.856;2023-12-20T13:23:56;9.30;99.90
36548;DHT22;22551;52.206;4.856;2023-12-20T13:29:00;9.30;99.90
36548;DHT22;22551;52.206;4.856;2023-12-20T13:34:04;9.20;99.90
36548;DHT22;22551;52.206;4.856;2023-12-20T13:39:06;9.20;99.90
36548;DHT22;22551;52.206;4.856;2023-12-20T13:44:10;9.30;99.90
36548;DHT22;22551;52.206;4.856;2023-12-20T13:49:13;9.30;99.90
36548;DHT22;22551;52.206;4.856;2023-12-20T13:54:15;9.20;99.90
36548;DHT22;22551;52.206;4.856;2023-12-20T13:59:22;9.20;99.90
36548;DHT22;22551;52.206;4.856;2023-12-20T14:04:24;9.20;99.90
36548;DHT22;22551;52.206;4.856;2023-12-20T14:09:26;9.20;99.90
36548;DHT22;22551;52.206;4.856;2023-12-20T14:14:30;9.20;99.90
36548;DHT22;22551;52.206;4.856;2023-12-20T14:19:32;9.20;99.90
36548;DHT22;22551;52.206;4.856;2023-12-20T14:24:35;9.20;99.90
36548;DHT22;22551;52.206;4.856;2023-12-20T14:29:39;9.20;99.90
36548;DHT22;22551;52.206;4.856;2023-12-20T14:34:41;9.10;99.90
36548;DHT22;22551;52.206;4.856;2023-12-20T14:39:43;9.10;99.90
36548;DHT22;22551;52.206;4.856;2023-12-20T14:44:47;9.10;99.90
36548;DHT22;22551;52.206;4.856;2023-12-20T14:49:49;9.10;99.90
36548;DHT22;22551;52.206;4.856;2023-12-20T15:00:05;9.00;99.90
36548;DHT22;22551;52.206;4.856;2023-12-20T15:41:22;8.90;99.90
36548;DHT22;22551;52.206;4.856;2023-12-20T15:46:24;8.90;99.90
36548;DHT22;22551;52.206;4.856;2023-12-20T15:51:26;8.80;99.90
36548;DHT22;22551;52.206;4.856;2023-12-20T15:56:30;8.80;99.90
36548;DHT22;22551;52.206;4.856;2023-12-20T16:01:32;8.80;99.90
36548;DHT22;22551;52.206;4.856;2023-12-20T16:06:36;8.80;99.90
36548;DHT22;22551;52.206;4.856;2023-12-20T16:11:39;8.80;99.90
36548;DHT22;22551;52.206;4.856;2023-12-20T16:16:45;8.80;99.90
36548;DHT22;22551;52.206;4.856;2023-12-20T16:21:47;8.80;99.90
36548;DHT22;22551;52.206;4.856;2023-12-20T16:26:50;8.80;99.90
36548;DHT22;22551;52.206;4.856;2023-12-20T16:31:52;8.70;99.90
36548;DHT22;22551;52.206;4.856;2023-12-20T16:36:54;8.60;99.90
36548;DHT22;22551;52.206;4.856;2023-12-20T16:41:59;8.60;99.90
36548;DHT22;22551;52.206;4.856;2023-12-20T16:47:02;8.60;99.90
36548;DHT22;22551;52.206;4.856;2023-12-20T16:52:06;8.60;99.90
36548;DHT22;22551;52.206;4.856;2023-12-20T16:57:10;8.50;99.90
36548;DHT22;22551;52.206;4.856;2023-12-20T17:02:12;8.60;99.90
36548;DHT22;22551;52.206;4.856;2023-12-20T17:07:14;8.60;99.90
36548;DHT22;22551;52.206;4.856;2023-12-20T17:12:18;8.60;99.90
36548;DHT22;22551;52.206;4.856;2023-12-20T17:17:20;8.60;99.90
36548;DHT22;22551;52.206;4.856;2023-12-20T17:22:22;8.60;99.90
36548;DHT22;22551;52.206;4.856;2023-12-20T17:27:26;8.70;99.90
36548;DHT22;22551;52.206;4.856;2023-12-20T17:37:38;8.70;99.90
36548;DHT22;22551;52.206;4.856;2023-12-20T17:42:43;8.70;99.90
36548;DHT22;22551;52.206;4.856;2023-12-20T17:47:46;8.80;99.90
36548;DHT22;22551;52.206;4.856;2023-12-20T17:52:48;8.80;99.90
36548;DHT22;22551;52.206;4.856;2023-12-20T17:57:51;8.80;99.90
36548;DHT22;22551;52.206;4.856;2023-12-20T18:02:53;8.80;99.90
36548;DHT22;22551;52.206;4.856;2023-12-20T18:38:59;8.90;99.90
36548;DHT22;22551;52.206;4.856;2023-12-20T19:04:43;8.90;99.90
36548;DHT22;22551;52.206;4.856;2023-12-20T19:14:56;9.00;99.90
36548;DHT22;22551;52.206;4.856;2023-12-20T19:19:59;9.00;99.90
36548;DHT22;22551;52.206;4.856;2023-12-20T19:40:37;9.10;99.90
36548;DHT22;22551;52.206;4.856;2023-12-20T19:45:39;9.10;99.90
36548;DHT22;22551;52.206;4.856;2023-12-20T20:22:13;9.30;99.90
36548;DHT22;22551;52.206;4.856;2023-12-20T20:27:17;9.40;99.90
36548;DHT22;22551;52.206;4.856;2023-12-20T20:32:23;9.50;99.90
36548;DHT22;22551;52.206;4.856;2023-12-20T20:37:27;9.50;99.90
36548;DHT22;22551;52.206;4.856;2023-12-20T20:42:29;9.50;99.90
36548;DHT22;22551;52.206;4.856;2023-12-20T20:47:33;9.60;99.90
36548;DHT22;22551;52.206;4.856;2023-12-20T20:52:35;9.60;99.90
36548;DHT22;22551;52.206;4.856;2023-12-20T20:57:37;9.60;99.90
36548;DHT22;22551;52.206;4.856;2023-12-20T21:02:40;9.70;99.90
36548;DHT22;22551;52.206;4.856;2023-12-20T21:07:43;9.70;99.90
36548;DHT22;22551;52.206;4.856;2023-12-20T21:12:45;9.70;99.90
36548;DHT22;22551;52.206;4.856;2023-12-20T21:17:48;9.60;99.90
36548;DHT22;22551;52.206;4.856;2023-12-20T21:22:50;9.60;99.90
36548;DHT22;22551;52.206;4.856;2023-12-20T21:27:52;9.70;99.90
36548;DHT22;22551;52.206;4.856;2023-12-20T21:32:56;9.70;99.90
36548;DHT22;22551;52.206;4.856;2023-12-20T21:37:58;9.70;99.90
36548;DHT22;22551;52.206;4.856;2023-12-20T21:43:02;9.70;99.90
36548;DHT22;22551;52.206;4.856;2023-12-20T21:48:07;9.70;99.90
36548;DHT22;22551;52.206;4.856;2023-12-20T21:53:09;9.70;99.90
36548;DHT22;22551;52.206;4.856;2023-12-20T21:58:11;9.80;99.90
36548;DHT22;22551;52.206;4.856;2023-12-20T22:03:15;9.70;99.90
36548;DHT22;22551;52.206;4.856;2023-12-20T22:08:17;9.80;99.90
36548;DHT22;22551;52.206;4.856;2023-12-20T22:13:19;9.80;99.90
36548;DHT22;22551;52.206;4.856;2023-12-20T22:18:22;9.80;99.90
36548;DHT22;22551;52.206;4.856;2023-12-20T22:23:24;9.80;99.90
36548;DHT22;22551;52.206;4.856;2023-12-20T22:28:27;9.70;99.90
36548;DHT22;22551;52.206;4.856;2023-12-20T22:33:30;9.80;99.90
36548;DHT22;22551;52.206;4.856;2023-12-20T22:38:33;9.80;99.90
36548;DHT22;22551;52.206;4.856;2023-12-20T22:43:36;9.80;99.90
36548;DHT22;22551;52.206;4.856;2023-12-20T22:48:40;9.80;99.90
36548;DHT22;22551;52.206;4.856;2023-12-20T22:53:42;9.90;99.90
36548;DHT22;22551;52.206;4.856;2023-12-20T22:58:44;9.90;99.90
36548;DHT22;22551;52.206;4.856;2023-12-20T23:03:47;9.90;99.90
36548;DHT22;22551;52.206;4.856;2023-12-20T23:08:49;9.90;99.90
36548;DHT22;22551;52.206;4.856;2023-12-20T23:13:51;9.90;99.90
36548;DHT22;22551;52.206;4.856;2023-12-20T23:18:55;9.90;99.90
36548;DHT22;22551;52.206;4.856;2023-12-20T23:23:57;9.90;99.90
36548;DHT22;22551;52.206;4.856;2023-12-20T23:28:59;9.90;99.90
36548;DHT22;22551;52.206;4.856;2023-12-20T23:34:04;9.90;99.90
36548;DHT22;22551;52.206;4.856;2023-12-20T23:39:06;9.90;99.90
36548;DHT22;22551;52.206;4.856;2023-12-20T23:44:09;9.90;99.90
36548;DHT22;22551;52.206;4.856;2023-12-20T23:49:12;9.90;99.90
36548;DHT22;22551;52.206;4.856;2023-12-20T23:54:14;9.90;99.90
36548;DHT22;22551;52.206;4.856;2023-12-20T23:59:16;10.00;99.90
